Jewell, Ohio
Current Conditions -  °F | °C
As of 11:13 AM on Saturday 25 Oct 2014 (Local Time) from KDFI Reporting Station
Scattered Clouds Scattered Clouds  
Wind Chill: 61°   Ceiling: Unl
Heat Index: 61°   Visibility: 7mi
Dew Point: 53°   Wind: 7mph
Humidity: 75%   Direction: 250°WSW
Pressure: 29.88"   Gusts: 18mph
Location:  41.33°N, 84.29°W
Report Text: KDFI 251513Z AUTO 25006G16KT 7SM SCT010 16/12 A2988 RMK AO2 T01610117
Loading
Personal Weather Stations






























Interactive Weather Map
Tropical Storm Tracking
New forecast layout! Learn more

10-Day Weather Forecast

Advertisements
Track Severe Weather on mobile